createdAt,value
2023-11-30T00:02:58.189Z,13.55
2023-11-30T00:09:04.823Z,16.00
2023-11-30T00:12:08.468Z,17.98
2023-11-30T00:15:11.014Z,17.75
2023-11-30T00:18:13.174Z,13.43
2023-11-30T00:21:15.172Z,15.40
2023-11-30T00:24:17.352Z,15.45
2023-11-30T00:30:22.596Z,25.23
2023-11-30T00:33:24.746Z,22.75
2023-11-30T00:36:26.827Z,13.07
2023-11-30T00:39:28.893Z,11.95
2023-11-30T00:42:32.181Z,11.95
2023-11-30T00:45:34.135Z,12.43
2023-11-30T00:48:36.583Z,13.15
2023-11-30T00:51:38.553Z,11.68
2023-11-30T00:54:40.514Z,13.95
2023-11-30T00:57:43.805Z,14.57
2023-11-30T01:00:45.744Z,13.73
2023-11-30T01:03:48.879Z,12.80
2023-11-30T01:06:51.314Z,14.55
2023-11-30T01:09:53.266Z,54.35
2023-11-30T01:12:56.569Z,18.02
2023-11-30T01:15:58.698Z,14.85
2023-11-30T01:19:00.821Z,14.57
2023-11-30T01:25:05.815Z,15.02
2023-11-30T01:28:09.155Z,15.13
2023-11-30T01:31:10.919Z,14.98
2023-11-30T01:34:12.985Z,12.32
2023-11-30T01:37:15.000Z,15.27
2023-11-30T01:40:17.371Z,10.80
2023-11-30T01:43:22.755Z,14.32
2023-11-30T01:46:24.692Z,14.55
2023-11-30T01:49:28.403Z,14.25
2023-11-30T01:52:30.840Z,13.18
2023-11-30T01:55:33.583Z,14.30
2023-11-30T01:58:39.787Z,14.63
2023-11-30T02:01:43.223Z,12.15
2023-11-30T02:04:49.900Z,11.13
2023-11-30T02:07:52.106Z,15.95
2023-11-30T02:13:57.494Z,13.20
2023-11-30T02:16:59.400Z,18.02
2023-11-30T02:20:03.762Z,15.07
2023-11-30T02:23:07.194Z,13.98
2023-11-30T02:26:10.289Z,15.13
2023-11-30T02:29:16.606Z,14.05
2023-11-30T02:32:18.732Z,14.77
2023-11-30T02:38:24.193Z,24.73
2023-11-30T02:41:26.193Z,25.88
2023-11-30T02:44:28.361Z,15.98
2023-11-30T02:50:32.115Z,15.80
2023-11-30T02:56:40.476Z,17.48
2023-11-30T02:59:42.388Z,13.98
2023-11-30T03:02:45.721Z,14.40
2023-11-30T03:05:47.686Z,21.17
2023-11-30T03:08:51.966Z,17.00
2023-11-30T03:11:54.071Z,27.52
2023-11-30T03:17:58.045Z,16.80
2023-11-30T03:24:03.392Z,35.73
2023-11-30T03:27:05.388Z,16.55
2023-11-30T03:30:08.747Z,19.75
2023-11-30T03:33:10.800Z,18.65
2023-11-30T03:39:16.053Z,16.05
2023-11-30T03:42:18.063Z,16.23
2023-11-30T03:45:20.154Z,15.90
2023-11-30T03:51:24.414Z,15.93
2023-11-30T03:54:27.794Z,17.02
2023-11-30T03:57:29.959Z,16.95
2023-11-30T04:03:34.090Z,15.70
2023-11-30T04:09:39.639Z,18.58
2023-11-30T04:12:42.061Z,13.85
2023-11-30T04:15:44.346Z,13.13
2023-11-30T04:18:46.452Z,12.50
2023-11-30T04:21:48.414Z,14.65
2023-11-30T04:24:52.290Z,14.13
2023-11-30T04:27:54.360Z,16.17
2023-11-30T04:30:57.917Z,16.08
2023-11-30T04:34:00.498Z,13.30
2023-11-30T04:37:02.452Z,16.20
2023-11-30T04:40:07.575Z,16.42
2023-11-30T04:43:09.643Z,12.13
2023-11-30T04:46:11.859Z,14.90
2023-11-30T04:49:14.147Z,14.75
2023-11-30T04:52:19.021Z,16.58
2023-11-30T04:55:22.511Z,16.67
2023-11-30T04:58:25.028Z,18.05
2023-11-30T05:01:27.001Z,17.88
2023-11-30T05:04:28.981Z,17.75
2023-11-30T05:10:34.230Z,17.77
2023-11-30T05:13:36.459Z,15.32
2023-11-30T05:16:38.509Z,17.17
2023-11-30T05:22:42.199Z,14.13
2023-11-30T05:25:45.727Z,16.70
2023-11-30T05:28:47.882Z,13.32
2023-11-30T05:34:52.932Z,13.32
2023-11-30T05:37:54.945Z,15.35
2023-11-30T05:40:59.523Z,18.70
2023-11-30T05:44:01.604Z,16.75
2023-11-30T05:50:06.271Z,14.98
2023-11-30T05:53:08.359Z,18.10
2023-11-30T05:59:13.486Z,15.93
2023-11-30T06:02:18.603Z,16.05
2023-11-30T06:05:20.749Z,13.55
2023-11-30T06:11:25.618Z,19.43
2023-11-30T06:14:27.426Z,14.93
2023-11-30T06:17:29.411Z,14.32
2023-11-30T06:20:32.422Z,15.55
2023-11-30T06:23:34.352Z,14.90
2023-11-30T06:26:37.651Z,16.27
2023-11-30T06:29:39.506Z,13.30
2023-11-30T06:32:41.473Z,17.60
2023-11-30T06:35:43.857Z,13.00
2023-11-30T06:38:46.076Z,14.13
2023-11-30T06:44:54.512Z,11.75
2023-11-30T06:47:56.596Z,14.75
2023-11-30T06:54:00.498Z,10.90
2023-11-30T07:00:10.581Z,8.82
2023-11-30T07:03:14.355Z,12.70
2023-11-30T07:06:16.705Z,12.50
2023-11-30T07:09:18.780Z,15.23
2023-11-30T07:15:23.830Z,10.40
2023-11-30T07:18:25.975Z,17.27
2023-11-30T07:24:30.986Z,13.95
2023-11-30T07:27:34.298Z,11.38
2023-11-30T07:30:37.571Z,11.85
2023-11-30T07:33:39.527Z,9.43
2023-11-30T07:36:42.023Z,10.63
2023-11-30T07:39:43.962Z,12.93
2023-11-30T07:42:47.263Z,10.75
2023-11-30T07:45:50.125Z,11.07
2023-11-30T07:48:52.140Z,7.85
2023-11-30T07:51:54.045Z,11.05
2023-11-30T07:54:56.089Z,11.10
2023-11-30T08:01:01.982Z,11.55
2023-11-30T08:04:04.859Z,11.55
2023-11-30T08:07:06.769Z,12.93
2023-11-30T08:10:09.021Z,8.80
2023-11-30T08:13:14.118Z,10.43
2023-11-30T08:16:16.199Z,11.30
2023-11-30T08:22:19.925Z,14.53
2023-11-30T08:28:25.907Z,16.92
2023-11-30T08:31:28.405Z,18.15
2023-11-30T08:34:30.313Z,14.02
2023-11-30T08:37:32.319Z,7.15
2023-11-30T08:40:34.342Z,8.23
2023-11-30T08:46:39.837Z,11.25
2023-11-30T08:49:41.807Z,9.50
2023-11-30T08:52:43.646Z,14.32
2023-11-30T08:55:46.760Z,10.88
2023-11-30T08:58:50.525Z,13.27
2023-11-30T09:01:52.858Z,14.27
2023-11-30T09:04:55.047Z,22.27
2023-11-30T09:10:58.681Z,12.60
2023-11-30T09:14:02.050Z,24.17
2023-11-30T09:17:05.582Z,16.42
2023-11-30T09:20:09.700Z,25.30
2023-11-30T09:23:11.559Z,14.52
2023-11-30T09:26:13.521Z,13.10
2023-11-30T09:29:16.749Z,13.52
2023-11-30T09:32:18.680Z,16.20
2023-11-30T09:35:20.556Z,10.82
2023-11-30T09:38:22.625Z,14.75
2023-11-30T09:41:24.747Z,12.73
2023-11-30T09:47:30.135Z,13.15
2023-11-30T09:50:32.412Z,16.10
2023-11-30T09:53:34.328Z,13.07
2023-11-30T09:56:36.331Z,13.30
2023-11-30T09:59:40.153Z,13.10
2023-11-30T10:02:51.595Z,12.52
2023-11-30T10:05:53.708Z,11.90
2023-11-30T10:09:02.058Z,15.68
2023-11-30T10:12:05.030Z,12.20
2023-11-30T10:15:10.697Z,14.25
2023-11-30T10:18:13.447Z,12.95
2023-11-30T10:21:15.358Z,14.70
2023-11-30T10:24:17.269Z,14.63
2023-11-30T10:27:22.506Z,11.98
2023-11-30T10:30:26.977Z,12.40
2023-11-30T10:33:30.311Z,15.15
2023-11-30T10:36:33.429Z,11.68
2023-11-30T10:39:42.748Z,10.77
2023-11-30T10:42:48.581Z,13.15
2023-11-30T10:45:55.206Z,13.38
2023-11-30T10:48:57.578Z,14.15
2023-11-30T10:52:03.800Z,14.00
2023-11-30T10:55:10.415Z,10.93
2023-11-30T10:58:12.893Z,13.77
2023-11-30T11:01:16.082Z,14.02
2023-11-30T11:04:18.041Z,12.52
2023-11-30T11:07:20.250Z,11.45
2023-11-30T11:13:25.998Z,11.63
2023-11-30T11:16:37.844Z,11.75
2023-11-30T11:19:41.504Z,12.30
2023-11-30T11:22:44.105Z,12.35
2023-11-30T11:25:47.745Z,13.50
2023-11-30T11:28:50.741Z,11.35
2023-11-30T11:31:55.093Z,9.05
2023-11-30T11:34:57.461Z,16.13
2023-11-30T11:38:00.330Z,12.07
2023-11-30T11:41:02.512Z,9.30
2023-11-30T11:44:04.460Z,9.35
2023-11-30T11:47:08.000Z,12.35
2023-11-30T11:50:14.828Z,10.73
2023-11-30T11:53:16.982Z,10.95
2023-11-30T11:56:18.988Z,12.20
2023-11-30T11:59:22.259Z,11.13
2023-11-30T12:02:26.436Z,9.40
2023-11-30T12:05:28.841Z,11.57
2023-11-30T12:08:31.475Z,9.88
2023-11-30T12:11:33.456Z,9.63
2023-11-30T12:14:36.246Z,8.48
2023-11-30T12:17:40.347Z,8.93
2023-11-30T12:20:44.433Z,7.85
2023-11-30T12:23:47.340Z,8.82
2023-11-30T12:26:49.494Z,10.55
2023-11-30T12:32:54.632Z,10.87
2023-11-30T12:35:57.161Z,9.00
2023-11-30T12:38:59.073Z,9.43
2023-11-30T12:42:01.896Z,9.10
2023-11-30T12:45:06.313Z,9.70
2023-11-30T12:48:09.786Z,10.82
2023-11-30T12:51:11.838Z,9.63
2023-11-30T12:54:14.319Z,10.43
2023-11-30T12:57:16.935Z,9.75
2023-11-30T13:00:19.949Z,10.73
2023-11-30T13:03:24.591Z,11.02
2023-11-30T13:06:26.935Z,8.18
2023-11-30T13:09:33.714Z,9.10
2023-11-30T13:12:36.407Z,10.70
2023-11-30T13:15:38.538Z,10.32
2023-11-30T13:21:44.543Z,8.93
2023-11-30T13:27:49.004Z,11.43
2023-11-30T13:30:51.487Z,11.05
2023-11-30T13:33:55.027Z,10.43
2023-11-30T13:36:57.382Z,11.48
2023-11-30T13:39:59.609Z,11.27
2023-11-30T13:46:05.905Z,10.37
2023-11-30T13:49:14.744Z,11.98
2023-11-30T13:52:17.523Z,11.88
2023-11-30T13:55:20.234Z,11.95
2023-11-30T13:58:23.511Z,12.02
2023-11-30T14:01:25.494Z,9.32
2023-11-30T14:04:34.260Z,11.80
2023-11-30T14:07:36.880Z,12.63
2023-11-30T14:10:40.533Z,11.52
2023-11-30T14:13:46.048Z,11.30
2023-11-30T14:22:59.359Z,17.08
2023-11-30T14:26:01.821Z,24.30
2023-11-30T14:29:04.603Z,18.60
2023-11-30T14:32:09.252Z,14.55
2023-11-30T14:35:13.389Z,14.32
2023-11-30T14:38:15.750Z,14.98
2023-11-30T14:41:17.996Z,14.77
2023-11-30T14:44:20.692Z,25.73
2023-11-30T14:47:27.088Z,14.90
2023-11-30T14:50:32.424Z,28.60
2023-11-30T14:53:35.087Z,19.45
2023-11-30T14:56:37.384Z,20.15
2023-11-30T14:59:40.337Z,15.30
2023-11-30T15:02:43.153Z,13.90
2023-11-30T15:05:47.359Z,14.07
2023-11-30T15:08:52.407Z,13.68
2023-11-30T15:11:56.039Z,16.00
2023-11-30T15:14:58.158Z,14.32
2023-11-30T15:21:03.562Z,10.73
2023-11-30T15:24:06.006Z,12.73
2023-11-30T15:27:08.071Z,13.85
2023-11-30T15:30:12.123Z,14.88
2023-11-30T15:33:17.947Z,17.17
2023-11-30T15:36:22.124Z,14.13
2023-11-30T15:39:25.426Z,15.02
2023-11-30T15:42:27.390Z,12.10
2023-11-30T15:45:29.703Z,16.13
2023-11-30T15:48:32.115Z,14.82
2023-11-30T15:51:39.412Z,12.00
2023-11-30T15:54:41.738Z,14.63
2023-11-30T15:57:45.951Z,15.43
2023-11-30T16:00:49.233Z,17.35
2023-11-30T16:03:52.206Z,17.25
2023-11-30T16:06:56.316Z,22.00
2023-11-30T16:09:58.589Z,19.42
2023-11-30T16:16:29.072Z,15.25
2023-11-30T16:19:31.091Z,15.68
2023-11-30T16:22:34.785Z,16.00
2023-11-30T16:25:37.018Z,14.80
2023-11-30T16:28:38.933Z,19.80
2023-11-30T16:31:42.795Z,16.92
2023-11-30T16:34:44.704Z,14.38
2023-11-30T16:37:47.912Z,16.08
2023-11-30T16:40:49.802Z,16.92
2023-11-30T16:43:51.752Z,17.88
2023-11-30T16:46:53.771Z,15.15
2023-11-30T16:52:59.071Z,15.15
2023-11-30T16:56:01.091Z,16.35
2023-11-30T17:02:05.282Z,19.38
2023-11-30T17:05:08.321Z,17.95
2023-11-30T17:08:11.786Z,25.50
2023-11-30T17:11:13.862Z,15.10
2023-11-30T17:14:15.769Z,18.13
2023-11-30T17:17:17.772Z,17.77
2023-11-30T17:20:20.716Z,15.63
2023-11-30T17:23:23.926Z,26.00
2023-11-30T17:26:25.842Z,23.00
2023-11-30T17:29:27.938Z,31.75
2023-11-30T17:35:32.418Z,23.10
2023-11-30T17:38:37.562Z,19.70
2023-11-30T17:41:42.422Z,21.63
2023-11-30T17:44:44.376Z,21.77
2023-11-30T17:47:46.715Z,23.75
2023-11-30T17:50:48.833Z,20.08
2023-11-30T17:53:52.248Z,17.73
2023-11-30T17:56:56.900Z,16.25
2023-11-30T17:59:58.901Z,20.13
2023-11-30T18:03:00.940Z,19.90
2023-11-30T18:06:05.525Z,19.75
2023-11-30T18:09:08.901Z,19.67
2023-11-30T18:12:10.917Z,16.13
2023-11-30T18:15:13.017Z,20.00
2023-11-30T18:21:16.930Z,16.23
2023-11-30T18:24:20.415Z,20.02
2023-11-30T18:27:22.843Z,21.42
2023-11-30T18:30:25.015Z,20.67
2023-11-30T18:36:29.042Z,23.15
2023-11-30T18:39:33.340Z,17.95
2023-11-30T18:42:36.055Z,24.23
2023-11-30T18:45:39.815Z,21.33
2023-11-30T18:48:42.365Z,23.80
2023-11-30T18:51:44.420Z,19.95
2023-11-30T18:54:49.321Z,23.60
2023-11-30T18:57:53.563Z,22.00
2023-11-30T19:00:58.559Z,24.40
2023-11-30T19:04:00.693Z,26.58
2023-11-30T19:07:02.850Z,31.67
2023-11-30T19:13:08.858Z,24.20
2023-11-30T19:16:16.807Z,36.97
2023-11-30T19:19:19.054Z,23.83
2023-11-30T19:22:22.803Z,26.45
2023-11-30T19:25:26.299Z,35.13
2023-11-30T19:28:28.809Z,31.15
2023-11-30T19:31:31.377Z,42.45
2023-11-30T19:34:33.688Z,40.00
2023-11-30T19:37:35.580Z,39.65
2023-11-30T19:40:38.805Z,28.92
2023-11-30T19:43:40.879Z,35.58
2023-11-30T19:49:45.781Z,24.65
2023-11-30T19:52:47.676Z,24.02
2023-11-30T19:55:52.135Z,25.33
2023-11-30T19:58:54.209Z,21.42
2023-11-30T20:01:58.741Z,36.92
2023-11-30T20:05:00.971Z,25.73
2023-11-30T20:11:10.923Z,22.00
2023-11-30T20:14:12.767Z,27.58
2023-11-30T20:17:14.847Z,21.88
2023-11-30T20:20:17.361Z,31.10
2023-11-30T20:23:19.751Z,25.45
2023-11-30T20:26:23.420Z,20.10
2023-11-30T20:29:27.287Z,19.00
2023-11-30T20:32:35.501Z,28.23
2023-11-30T20:35:37.773Z,28.75
2023-11-30T20:41:47.424Z,22.00
2023-11-30T20:44:52.992Z,23.90
2023-11-30T20:47:55.250Z,22.33
2023-11-30T20:50:57.418Z,23.17
2023-11-30T20:57:05.400Z,24.48
2023-11-30T21:00:09.859Z,38.35
2023-11-30T21:03:11.989Z,32.15
2023-11-30T21:06:14.145Z,47.30
2023-11-30T21:12:19.451Z,51.35
2023-11-30T21:15:21.521Z,51.60
2023-11-30T21:21:25.845Z,58.13
2023-11-30T21:27:33.217Z,51.05
2023-11-30T21:30:35.250Z,43.35
2023-11-30T21:33:37.462Z,42.40
2023-11-30T21:36:43.463Z,30.33
2023-11-30T21:39:45.905Z,28.73
2023-11-30T21:42:50.290Z,37.05
2023-11-30T21:45:52.465Z,32.70
2023-11-30T21:51:56.795Z,23.73
2023-11-30T21:54:58.757Z,29.05
2023-11-30T21:58:02.173Z,24.60
2023-11-30T22:01:06.029Z,31.23
2023-11-30T22:04:08.336Z,33.85
2023-11-30T22:10:13.300Z,28.88
2023-11-30T22:13:16.726Z,20.10
2023-11-30T22:16:26.022Z,22.88
2023-11-30T22:19:31.596Z,29.80
2023-11-30T22:22:34.589Z,32.88
2023-11-30T22:25:36.731Z,24.73
2023-11-30T22:31:42.592Z,51.97
2023-11-30T22:34:44.937Z,26.83
2023-11-30T22:37:47.098Z,29.95
2023-11-30T22:40:49.697Z,29.27
2023-11-30T22:43:53.218Z,23.88
2023-11-30T22:46:55.404Z,26.25
2023-11-30T22:49:57.699Z,29.00
2023-11-30T22:52:59.923Z,23.90
2023-11-30T22:56:01.967Z,21.75
2023-11-30T22:59:07.244Z,13.18
2023-11-30T23:02:09.870Z,15.32
2023-11-30T23:05:13.326Z,18.95
2023-11-30T23:08:16.111Z,19.52
2023-11-30T23:11:18.463Z,23.85
2023-11-30T23:14:23.623Z,16.77
2023-11-30T23:17:25.764Z,30.38
2023-11-30T23:23:29.580Z,20.52
2023-11-30T23:29:37.826Z,13.73
2023-11-30T23:32:40.312Z,17.25
2023-11-30T23:35:42.804Z,19.73
2023-11-30T23:38:45.446Z,24.23
2023-11-30T23:41:47.557Z,22.83
2023-11-30T23:47:53.089Z,23.80
2023-11-30T23:53:59.311Z,38.88
2023-11-30T23:57:01.383Z,20.15
